Time;durP1;ratioP1;P1;durP2;ratioP2;P2;SDS_P1;SDS_P2;PMS_P1;PMS_P2;Temp;Humidity;BMP_temperature;BMP_pressure;BME280_temperature;BME280_humidity;BME280_pressure;Samples;Min_cycle;Max_cycle;Signal;HPM_P1;HPM_P2
2022/01/01 00:01:51;;;;;;;31.08;21.45;;;;;;;5.03;76.16;102229.59;5028183;28;20053;-69
2022/01/01 00:04:18;;;;;;;38.22;22.58;;;;;;;5.04;76.27;102226.13;5028192;28;20046;-71
2022/01/01 00:06:45;;;;;;;41.30;24.27;;;;;;;5.10;76.11;102227.78;5028007;28;20087;-67
2022/01/01 00:09:11;;;;;;;59.22;26.08;;;;;;;5.06;75.56;102237.34;5028627;28;20046;-70
2022/01/01 00:11:38;;;;;;;45.80;27.42;;;;;;;5.04;76.37;102230.44;5028324;28;20050;-69
2022/01/01 00:14:05;;;;;;;47.60;30.13;;;;;;;5.16;76.27;102227.72;5027290;28;20415;-68
2022/01/01 00:16:31;;;;;;;47.80;30.33;;;;;;;5.13;75.92;102211.28;5028237;28;20611;-66
2022/01/01 00:18:58;;;;;;;54.55;31.08;;;;;;;5.17;76.08;102211.25;5027762;28;20451;-69
2022/01/01 00:21:25;;;;;;;55.47;31.20;;;;;;;5.17;76.08;102216.44;5028354;28;20137;-70
2022/01/01 00:23:52;;;;;;;56.92;31.08;;;;;;;5.17;75.91;102219.06;5028129;28;20095;-66
2022/01/01 00:26:20;;;;;;;51.13;29.70;;;;;;;5.12;76.16;102220.84;5028359;28;20119;-70
2022/01/01 00:28:47;;;;;;;43.60;24.98;;;;;;;5.10;76.34;102214.78;5027932;28;20053;-69
2022/01/01 00:31:14;;;;;;;57.15;36.63;;;;;;;5.12;76.15;102207.84;5027182;28;20557;-70
2022/01/01 00:33:41;;;;;;;52.95;29.90;;;;;;;5.13;76.26;102219.09;5027794;28;20050;-69
2022/01/01 00:36:07;;;;;;;48.15;30.02;;;;;;;5.16;76.34;102224.28;5027956;28;20365;-66
2022/01/01 00:38:34;;;;;;;44.38;22.15;;;;;;;5.12;76.51;102220.84;5027818;28;20487;-70
2022/01/01 00:41:00;;;;;;;27.85;19.42;;;;;;;5.19;76.25;102225.13;5027768;28;20450;-69
2022/01/01 00:43:27;;;;;;;51.40;28.38;;;;;;;5.23;76.10;102224.19;5028282;28;20049;-69
2022/01/01 00:45:54;;;;;;;62.00;36.38;;;;;;;5.20;76.34;102224.22;5027592;28;20045;-69
2022/01/01 00:48:20;;;;;;;49.78;29.33;;;;;;;5.27;76.17;102224.16;5030238;28;20053;-69
2022/01/01 00:50:47;;;;;;;55.10;27.10;;;;;;;5.26;76.13;102212.91;5030645;28;20491;-68
2022/01/01 00:53:14;;;;;;;39.17;23.30;;;;;;;5.29;76.35;102219.81;5031613;28;20103;-69
2022/01/01 00:55:40;;;;;;;46.72;25.40;;;;;;;5.28;76.20;102231.09;5031177;28;20080;-69
2022/01/01 00:58:07;;;;;;;74.63;33.10;;;;;;;5.27;76.26;102229.34;5031326;28;20076;-67
2022/01/01 01:00:34;;;;;;;71.55;30.45;;;;;;;5.30;76.21;102226.75;5032446;28;20045;-70
2022/01/01 01:03:07;;;;;;;76.13;35.67;;;;;;;5.30;76.15;102235.41;5034560;28;20045;-70
2022/01/01 01:05:34;;;;;;;64.88;31.90;;;;;;;5.31;76.43;102231.06;5033927;28;20053;-70
2022/01/01 01:08:00;;;;;;;47.53;24.38;;;;;;;5.32;76.41;102230.16;5034008;28;20045;-70
2022/01/01 01:10:27;;;;;;;40.58;24.17;;;;;;;5.28;76.37;102224.16;5034624;28;20076;-70
2022/01/01 01:12:54;;;;;;;53.55;24.50;;;;;;;5.26;76.31;102222.44;5034569;28;20459;-70
2022/01/01 01:15:20;;;;;;;39.60;23.20;;;;;;;5.22;76.25;102235.47;5034815;28;20118;-70
2022/01/01 01:17:49;;;;;;;47.85;25.63;;;;;;;5.23;76.53;102232.00;5034439;28;20450;-70
2022/01/01 01:20:17;;;;;;;35.13;23.48;;;;;;;5.25;76.34;102224.19;5034649;28;20077;-69
2022/01/01 01:22:44;;;;;;;36.35;23.13;;;;;;;5.23;76.75;102224.19;5033516;28;20511;-70
2022/01/01 01:25:12;;;;;;;40.17;23.08;;;;;;;5.24;76.50;102225.06;5037311;28;20107;-73
2022/01/01 01:27:39;;;;;;;41.17;22.33;;;;;;;5.24;76.50;102222.44;5039911;28;20045;-69
2022/01/01 01:30:12;;;;;;;36.70;21.90;;;;;;;5.25;76.58;102226.78;5034287;28;20049;-70
2022/01/01 01:32:39;;;;;;;40.33;22.65;;;;;;;5.25;76.59;102211.16;5034391;28;20053;-70
2022/01/01 01:35:07;;;;;;;36.00;22.02;;;;;;;5.27;76.53;102213.75;5034242;28;20127;-70
2022/01/01 01:37:33;;;;;;;46.20;22.48;;;;;;;5.26;76.65;102217.22;5032736;28;20116;-70
2022/01/01 01:40:01;;;;;;;35.45;21.00;;;;;;;5.26;76.32;102220.69;5033961;28;20416;-70
2022/01/01 01:42:29;;;;;;;38.25;21.88;;;;;;;5.26;76.48;102217.22;5034063;28;20052;-71
2022/01/01 01:44:58;;;;;;;34.00;21.05;;;;;;;5.27;76.46;102221.56;5034101;28;20045;-70
2022/01/01 01:47:35;;;;;;;31.85;21.65;;;;;;;5.26;76.47;102215.50;5034051;28;20099;-70
2022/01/01 01:50:06;;;;;;;39.25;23.23;;;;;;;5.28;76.36;102221.56;5033995;28;20049;-70
2022/01/01 01:52:36;;;;;;;39.22;22.55;;;;;;;5.24;76.40;102219.84;5032512;28;20416;-69
2022/01/01 01:55:05;;;;;;;37.08;22.90;;;;;;;5.27;76.24;102216.34;5033807;28;20045;-70
2022/01/01 01:57:35;;;;;;;38.53;23.15;;;;;;;5.25;76.41;102221.56;5033673;28;20127;-69
2022/01/01 02:00:04;;;;;;;32.20;22.95;;;;;;;5.21;76.31;102231.16;5033639;28;20091;-70
2022/01/01 02:02:32;;;;;;;29.67;21.23;;;;;;;5.21;76.38;102212.94;5033656;28;20049;-70
2022/01/01 02:04:59;;;;;;;34.22;21.98;;;;;;;5.22;76.17;102217.25;5033550;28;20045;-69
2022/01/01 02:07:27;;;;;;;38.70;23.08;;;;;;;5.20;76.16;102215.56;5033542;28;20444;-70
2022/01/01 02:09:53;;;;;;;39.72;23.88;;;;;;;5.20;76.37;102212.97;5032553;28;20037;-70
2022/01/01 02:12:22;;;;;;;34.55;23.70;;;;;;;5.21;76.18;102210.34;5033710;28;20050;-68
2022/01/01 02:17:15;;;;;;;41.28;22.05;;;;;;;5.16;75.88;102213.88;5033747;28;20049;-70
2022/01/01 02:19:45;;;;;;;35.70;23.83;;;;;;;5.14;75.94;102213.91;5033327;28;20049;-70
2022/01/01 02:22:12;;;;;;;37.67;23.45;;;;;;;5.13;76.16;102204.34;5033420;28;20407;-70
2022/01/01 02:24:38;;;;;;;39.72;25.55;;;;;;;5.15;75.99;102215.59;5033264;28;20053;-70
2022/01/01 02:27:05;;;;;;;41.45;24.55;;;;;;;5.16;75.86;102216.47;5032271;28;20053;-69
2022/01/01 02:29:32;;;;;;;47.78;26.83;;;;;;;5.19;75.84;102219.91;5033214;28;20499;-69
2022/01/01 02:31:59;;;;;;;38.13;24.75;;;;;;;5.16;76.15;102224.28;5032931;28;20408;-67
2022/01/01 02:34:26;;;;;;;40.30;25.42;;;;;;;5.20;76.16;102219.00;5033352;28;20454;-70
2022/01/01 02:36:53;;;;;;;37.38;25.10;;;;;;;5.17;75.87;102203.44;5032669;28;20045;-69
2022/01/01 02:39:22;;;;;;;31.75;22.67;;;;;;;5.20;75.99;102206.00;5033059;28;20041;-71
2022/01/01 02:41:51;;;;;;;37.35;22.50;;;;;;;5.15;75.97;102217.34;5031930;28;20111;-70
2022/01/01 02:44:22;;;;;;;31.00;21.80;;;;;;;5.15;75.81;102217.34;5032938;28;20045;-68
2022/01/01 02:46:52;;;;;;;33.17;22.02;;;;;;;5.14;75.80;102220.81;5032878;28;20054;-71
2022/01/01 02:49:18;;;;;;;30.48;19.58;;;;;;;5.10;75.88;102217.38;5032783;28;20045;-70
2022/01/01 02:51:45;;;;;;;34.22;21.88;;;;;;;5.08;75.65;102208.75;5032606;28;20049;-70
2022/01/01 02:54:12;;;;;;;30.35;19.77;;;;;;;5.08;75.77;102219.16;5032682;28;20500;-70
2022/01/01 02:56:38;;;;;;;30.75;20.77;;;;;;;5.07;75.64;102220.03;5032918;28;20119;-67
2022/01/01 02:59:05;;;;;;;31.40;21.13;;;;;;;5.06;75.67;102215.69;5031831;28;20131;-71
2022/01/01 03:01:31;;;;;;;32.35;20.83;;;;;;;5.02;75.74;102209.66;5032509;28;20041;-71
2022/01/01 03:03:58;;;;;;;37.90;20.95;;;;;;;5.08;75.47;102219.16;5032617;28;20128;-71
2022/01/01 03:06:28;;;;;;;36.67;22.98;;;;;;;5.05;75.41;102217.44;5032643;28;20056;-71
2022/01/01 03:08:56;;;;;;;39.97;21.92;;;;;;;5.07;75.46;102215.66;5032452;28;20096;-71
2022/01/01 03:11:23;;;;;;;45.25;22.90;;;;;;;5.06;75.40;102211.34;5031755;28;20488;-71
2022/01/01 03:13:50;;;;;;;35.97;22.52;;;;;;;5.06;75.52;102213.09;5032383;28;20045;-71
2022/01/01 03:16:17;;;;;;;41.05;23.02;;;;;;;5.03;75.31;102208.78;5031327;28;20049;-67
2022/01/01 03:18:43;;;;;;;34.13;22.88;;;;;;;5.02;75.60;102207.06;5032539;28;20057;-70
2022/01/01 03:21:10;;;;;;;32.15;21.48;;;;;;;5.03;75.68;102211.38;5032458;28;20139;-70
2022/01/01 03:23:37;;;;;;;33.70;20.30;;;;;;;5.03;75.46;102216.59;5032085;28;20046;-70
2022/01/01 03:26:04;;;;;;;31.48;19.67;;;;;;;5.00;75.52;102208.81;5032230;28;20099;-70
2022/01/01 03:28:31;;;;;;;26.23;19.23;;;;;;;5.01;75.35;102209.69;5032109;28;20050;-69
2022/01/01 03:30:58;;;;;;;30.80;19.50;;;;;;;5.01;75.37;102213.13;5031094;28;20107;-70
2022/01/01 03:33:25;;;;;;;28.02;19.67;;;;;;;5.02;75.26;102208.81;5032035;28;20090;-70
2022/01/01 03:35:52;;;;;;;26.17;18.80;;;;;;;5.03;75.48;102207.94;5032140;28;20041;-71
2022/01/01 03:38:19;;;;;;;27.55;18.73;;;;;;;5.03;75.45;102205.34;5031807;28;20060;-70
2022/01/01 03:40:46;;;;;;;28.25;19.48;;;;;;;4.84;75.85;102204.66;5031858;28;20460;-70
2022/01/01 03:43:12;;;;;;;37.33;19.75;;;;;;;4.89;75.48;102208.06;5031936;28;20495;-70
2022/01/01 03:45:39;;;;;;;33.20;20.13;;;;;;;4.90;75.46;102210.66;5032037;28;20045;-70
2022/01/01 03:48:06;;;;;;;29.60;18.65;;;;;;;4.89;75.72;102208.06;5030922;28;20406;-70
2022/01/01 03:50:34;;;;;;;32.20;19.38;;;;;;;4.92;75.52;102207.16;5031905;28;20053;-70
2022/01/01 03:53:01;;;;;;;30.58;19.90;;;;;;;4.90;75.29;102207.16;5031653;28;20164;-71
2022/01/01 03:55:27;;;;;;;31.48;19.90;;;;;;;4.95;75.70;102205.41;5032077;28;20049;-70
2022/01/01 03:57:54;;;;;;;28.10;20.08;;;;;;;4.95;75.38;102210.63;5031713;28;20049;-70
2022/01/01 04:00:20;;;;;;;34.00;20.63;;;;;;;4.98;75.48;102210.56;5031841;28;20045;-70
2022/01/01 04:02:47;;;;;;;30.27;20.48;;;;;;;4.99;75.37;102207.09;5028559;28;20124;-67
2022/01/01 04:05:14;;;;;;;33.88;20.15;;;;;;;4.97;75.35;102213.19;5027936;28;20077;-67
2022/01/01 04:07:41;;;;;;;32.72;20.50;;;;;;;4.98;75.59;102215.78;5028134;28;20103;-70
2022/01/01 04:10:08;;;;;;;37.30;19.10;;;;;;;4.98;75.32;102205.38;5028554;28;20049;-70
2022/01/01 04:12:35;;;;;;;26.77;18.70;;;;;;;4.98;75.66;102209.72;5028504;28;20103;-70
2022/01/01 04:15:03;;;;;;;30.27;19.25;;;;;;;4.96;75.60;102211.47;5028443;28;20045;-70
2022/01/01 04:17:35;;;;;;;39.15;19.35;;;;;;;4.90;75.67;102212.38;5028537;28;20115;-69
2022/01/01 04:20:03;;;;;;;25.75;18.73;;;;;;;4.90;75.84;102210.66;5028586;28;20045;-70
2022/01/01 04:22:30;;;;;;;28.00;18.63;;;;;;;4.95;75.48;102217.53;5030099;28;20045;-69
2022/01/01 04:24:56;;;;;;;29.70;19.08;;;;;;;4.94;75.21;102210.59;5031936;28;20053;-69
2022/01/01 04:27:25;;;;;;;30.05;18.40;;;;;;;4.95;75.37;102222.75;5032252;28;20041;-69
2022/01/01 04:29:52;;;;;;;29.17;18.58;;;;;;;4.93;75.26;102224.47;5031931;28;20046;-69
2022/01/01 04:32:18;;;;;;;30.45;19.13;;;;;;;4.90;75.40;102221.03;5031998;28;20045;-67
2022/01/01 04:34:45;;;;;;;26.95;18.25;;;;;;;4.90;75.22;102225.38;5032124;28;20045;-68
2022/01/01 04:37:13;;;;;;;37.95;20.00;;;;;;;4.90;75.39;102222.78;5030817;28;20057;-70
2022/01/01 04:39:40;;;;;;;30.77;19.45;;;;;;;4.88;75.45;102222.78;5032124;28;20049;-67
2022/01/01 04:42:07;;;;;;;35.25;20.42;;;;;;;4.85;75.45;102219.34;5031619;28;20045;-70
2022/01/01 04:44:34;;;;;;;28.75;18.85;;;;;;;4.87;75.51;102222.81;5032277;28;20049;-68
2022/01/01 04:47:01;;;;;;;27.50;18.17;;;;;;;4.88;75.47;102211.53;5032089;28;20389;-68
2022/01/01 04:49:27;;;;;;;27.80;17.95;;;;;;;4.85;75.33;102228.03;5031721;28;20045;-67
2022/01/01 04:51:54;;;;;;;30.15;18.38;;;;;;;4.88;75.42;102230.59;5031564;28;20049;-70
2022/01/01 04:54:20;;;;;;;25.83;17.48;;;;;;;4.92;75.05;102225.38;5030854;28;20049;-70
2022/01/01 04:56:48;;;;;;;25.15;17.50;;;;;;;4.90;75.20;102222.78;5031805;28;20076;-67
2022/01/01 04:59:16;;;;;;;24.77;16.95;;;;;;;4.90;75.17;102226.25;5031788;28;20103;-70
2022/01/01 05:01:43;;;;;;;24.10;17.50;;;;;;;4.88;75.15;102220.19;5031493;28;20042;-69
2022/01/01 05:04:11;;;;;;;22.08;16.00;;;;;;;4.89;75.08;102224.53;5031470;28;20096;-69
2022/01/01 05:06:40;;;;;;;26.58;16.80;;;;;;;4.88;75.07;102224.53;5031145;28;20057;-70
2022/01/01 05:09:08;;;;;;;25.13;17.50;;;;;;;4.87;75.07;102228.00;5031327;28;20053;-70
2022/01/01 05:11:34;;;;;;;27.42;17.15;;;;;;;4.85;74.85;102230.63;5030308;28;20458;-69
2022/01/01 05:14:01;;;;;;;27.65;18.00;;;;;;;4.83;74.97;102240.19;5031549;28;20057;-69
2022/01/01 05:16:28;;;;;;;27.30;17.65;;;;;;;4.84;75.07;102241.06;5031478;28;20049;-70
2022/01/01 05:18:54;;;;;;;29.08;19.10;;;;;;;4.82;75.08;102246.25;5031212;28;20045;-68
2022/01/01 05:21:21;;;;;;;37.08;19.35;;;;;;;4.84;74.69;102243.66;5030967;28;20484;-70
2022/01/01 05:23:47;;;;;;;30.65;19.40;;;;;;;4.81;75.08;102238.47;5031234;28;20045;-70
2022/01/01 05:26:15;;;;;;;26.20;18.08;;;;;;;4.83;74.95;102239.31;5031282;28;20091;-70
2022/01/01 05:28:44;;;;;;;26.70;18.35;;;;;;;4.82;75.04;102233.25;5029965;28;20042;-67
2022/01/01 05:31:11;;;;;;;27.35;18.70;;;;;;;4.82;75.08;102230.63;5031230;28;20053;-70
2022/01/01 05:33:38;;;;;;;29.55;19.40;;;;;;;4.83;75.04;102226.31;5030093;28;20049;-68
2022/01/01 05:36:05;;;;;;;31.40;18.58;;;;;;;4.80;74.75;102226.31;5030994;28;20049;-69
2022/01/01 05:38:31;;;;;;;30.98;17.88;;;;;;;4.73;75.00;102226.38;5030846;28;20065;-70
2022/01/01 05:40:58;;;;;;;28.30;18.40;;;;;;;4.76;74.89;102230.69;5030849;28;20045;-70
2022/01/01 05:43:24;;;;;;;28.13;17.17;;;;;;;4.76;75.07;102227.25;5029967;28;20542;-68
2022/01/01 05:45:51;;;;;;;33.92;19.20;;;;;;;4.76;75.00;102230.69;5030815;28;20061;-70
2022/01/01 05:48:18;;;;;;;27.40;18.48;;;;;;;4.77;75.08;102231.56;5030596;28;20088;-70
2022/01/01 05:50:44;;;;;;;30.33;19.45;;;;;;;4.78;74.87;102230.69;5030718;28;20389;-68
2022/01/01 05:53:11;;;;;;;34.20;19.58;;;;;;;4.77;74.62;102241.97;5030797;28;20045;-70
2022/01/01 05:55:38;;;;;;;30.27;18.80;;;;;;;4.73;74.76;102248.94;5030610;28;20045;-70
2022/01/01 05:58:05;;;;;;;27.55;18.33;;;;;;;4.70;74.82;102251.56;5030317;28;20821;-69
2022/01/01 06:00:33;;;;;;;29.77;18.92;;;;;;;4.68;74.86;102245.50;5030738;28;20050;-70
2022/01/01 06:03:00;;;;;;;27.13;17.35;;;;;;;4.65;74.74;102254.19;5029304;28;20041;-69
2022/01/01 06:05:34;;;;;;;27.20;18.20;;;;;;;4.67;75.09;102254.19;5030518;28;20084;-69
2022/01/01 06:08:03;;;;;;;;;;;;;;;4.68;74.66;102245.50;5030283;28;20666;-67
2022/01/01 06:10:29;;;;;;;27.45;17.40;;;;;;;4.72;74.57;102252.41;5030620;28;20383;-70
2022/01/01 06:12:56;;;;;;;26.45;18.17;;;;;;;4.70;74.48;102254.16;5029936;28;20080;-69
2022/01/01 06:15:23;;;;;;;26.70;17.95;;;;;;;4.68;74.67;102255.91;5030172;28;20049;-70
2022/01/01 06:17:50;;;;;;;26.83;18.17;;;;;;;4.61;74.67;102251.63;5029973;28;20565;-67
2022/01/01 06:20:17;;;;;;;27.35;17.63;;;;;;;4.64;74.85;102257.66;5029274;28;20111;-69
2022/01/01 06:23:03;;;;;;;31.77;19.48;;;;;;;4.63;74.66;102257.69;5029952;28;20417;-70
2022/01/01 06:25:30;;;;;;;26.33;18.00;;;;;;;4.60;74.76;102261.16;5030226;28;20045;-70
2022/01/01 06:27:56;;;;;;;27.10;17.63;;;;;;;4.63;74.57;102261.13;5029838;28;20100;-66
2022/01/01 06:30:23;;;;;;;26.70;17.13;;;;;;;4.62;74.67;102254.22;5029881;28;20270;-67
2022/01/01 06:32:51;;;;;;;35.00;18.75;;;;;;;4.65;74.49;102272.38;5030095;28;20045;-70
2022/01/01 06:35:18;;;;;;;33.22;18.08;;;;;;;4.62;74.41;102272.44;5026634;28;20100;-69
2022/01/01 06:37:44;;;;;;;30.70;18.48;;;;;;;4.61;74.51;102275.91;5029177;28;20050;-66
2022/01/01 06:40:11;;;;;;;34.10;18.27;;;;;;;4.60;74.10;102284.56;5029970;28;20221;-70
2022/01/01 06:42:38;;;;;;;29.17;18.60;;;;;;;4.56;74.71;102283.72;5029607;28;20045;-69
2022/01/01 06:45:05;;;;;;;31.55;18.88;;;;;;;4.57;74.76;102281.97;5028538;28;20511;-68
2022/01/01 06:47:31;;;;;;;29.70;18.08;;;;;;;4.62;74.56;102285.44;5029891;28;20511;-70
2022/01/01 06:49:58;;;;;;;33.42;19.08;;;;;;;4.59;74.28;102290.63;5029361;28;20042;-70
2022/01/01 06:52:25;;;;;;;31.60;18.50;;;;;;;4.56;74.53;102291.50;5028025;28;20053;-68
2022/01/01 06:54:51;;;;;;;28.08;18.63;;;;;;;4.56;74.78;102293.25;5029582;28;20518;-70
2022/01/01 06:57:18;;;;;;;29.60;18.58;;;;;;;4.59;74.50;102301.03;5029534;28;20123;-69
2022/01/01 06:59:44;;;;;;;32.90;18.35;;;;;;;4.55;74.55;102310.59;5029093;28;20088;-69
2022/01/01 07:02:11;;;;;;;27.35;17.63;;;;;;;4.53;74.59;102308.88;5020744;28;20049;-67
2022/01/01 07:04:38;;;;;;;33.10;17.35;;;;;;;4.53;74.60;102311.47;5029322;28;20049;-70
2022/01/01 07:07:04;;;;;;;29.30;18.13;;;;;;;4.50;74.55;102320.16;5028640;28;20731;-66
2022/01/01 07:09:31;;;;;;;29.15;18.50;;;;;;;4.54;74.60;102318.41;5028496;28;20451;-69
2022/01/01 07:11:57;;;;;;;26.55;17.38;;;;;;;4.53;74.61;102322.75;5029184;28;20049;-69
2022/01/01 07:14:24;;;;;;;25.10;16.52;;;;;;;4.57;74.58;102323.56;5029079;28;20053;-68
2022/01/01 07:16:51;;;;;;;24.15;17.20;;;;;;;4.56;74.49;102338.31;5023734;28;20049;-70
2022/01/01 07:19:18;;;;;;;25.38;16.75;;;;;;;4.56;74.58;102340.06;5029000;28;20506;-70
2022/01/01 07:21:44;;;;;;;28.58;16.75;;;;;;;4.57;74.51;102340.03;5028900;28;20048;-70
2022/01/01 07:24:11;;;;;;;28.08;16.98;;;;;;;4.58;74.89;102343.50;5028941;28;20045;-70
2022/01/01 07:26:38;;;;;;;31.92;17.63;;;;;;;4.59;74.69;102350.44;5028039;28;20490;-69
2022/01/01 07:29:04;;;;;;;26.02;15.77;;;;;;;4.60;74.67;102346.97;5028831;28;20053;-70
2022/01/01 07:31:31;;;;;;;26.48;17.05;;;;;;;4.58;74.56;102354.78;5028876;28;20523;-68
2022/01/01 07:33:57;;;;;;;30.75;16.08;;;;;;;4.58;74.36;102349.56;5029238;28;20041;-70
2022/01/01 07:36:24;;;;;;;28.70;16.55;;;;;;;4.61;74.42;102359.09;5028814;28;20091;-70
2022/01/01 07:38:51;;;;;;;31.48;16.80;;;;;;;4.60;74.13;102367.75;5028192;28;20054;-69
2022/01/01 07:41:17;;;;;;;26.90;17.25;;;;;;;4.62;74.12;102372.94;5028429;28;20514;-69
2022/01/01 07:43:44;;;;;;;26.48;15.43;;;;;;;4.59;74.29;102379.03;5027613;28;20046;-67
2022/01/01 07:46:10;;;;;;;26.52;16.17;;;;;;;4.62;74.18;102375.53;5027669;28;20462;-68
2022/01/01 07:48:37;;;;;;;24.25;16.02;;;;;;;4.60;74.42;102377.28;5028839;28;20049;-70
2022/01/01 07:51:03;;;;;;;22.83;15.77;;;;;;;4.61;74.20;102379.00;5028531;28;20514;-69
2022/01/01 07:53:30;;;;;;;24.23;15.68;;;;;;;4.63;74.19;102391.13;5029027;28;20052;-70
2022/01/01 07:55:57;;;;;;;22.40;16.42;;;;;;;4.62;73.98;102396.34;5028086;28;20107;-70
2022/01/01 07:58:24;;;;;;;23.70;15.13;;;;;;;4.59;74.00;102405.03;5028743;28;20056;-69
2022/01/01 08:00:50;;;;;;;22.33;15.32;;;;;;;4.51;73.93;102410.25;5027522;28;20184;-68
2022/01/01 08:03:17;;;;;;;25.98;15.35;;;;;;;4.54;74.03;102411.97;5028556;28;20053;-68
2022/01/01 08:05:44;;;;;;;21.80;14.80;;;;;;;4.56;73.81;102403.31;5028582;28;20045;-67
2022/01/01 08:08:10;;;;;;;26.13;17.52;;;;;;;4.51;73.79;102404.22;5028060;28;20053;-70
2022/01/01 08:10:37;;;;;;;24.55;17.30;;;;;;;4.56;73.72;102399.84;5028672;28;20099;-70
2022/01/01 08:13:05;;;;;;;29.00;17.58;;;;;;;4.58;73.50;102400.69;5028439;28;20423;-68
2022/01/01 08:15:32;;;;;;;26.10;17.38;;;;;;;4.58;73.75;102404.19;5027727;28;20045;-68
2022/01/01 08:17:59;;;;;;;23.98;18.15;;;;;;;4.58;73.87;102401.56;5028298;28;20108;-70
2022/01/01 08:20:36;;;;;;;30.67;18.73;;;;;;;4.59;73.59;102397.22;5028564;28;20050;-70
2022/01/01 08:23:03;;;;;;;28.55;16.95;;;;;;;4.62;73.62;102394.63;5028207;28;20088;-69
2022/01/01 08:25:29;;;;;;;26.02;17.63;;;;;;;4.70;73.59;102397.19;5028489;28;20045;-69
2022/01/01 08:27:56;;;;;;;25.45;16.85;;;;;;;4.73;73.45;102399.75;5028110;28;20484;-70
2022/01/01 08:30:22;;;;;;;23.52;15.73;;;;;;;4.69;73.54;102404.09;5028379;28;20053;-67
2022/01/01 08:32:49;;;;;;;32.03;16.63;;;;;;;4.65;73.69;102406.75;5027600;28;20038;-69
2022/01/01 08:35:16;;;;;;;28.85;17.17;;;;;;;4.66;73.53;102405.84;5028671;28;20126;-70
2022/01/01 08:37:42;;;;;;;24.95;16.50;;;;;;;4.59;73.64;102405.03;5027864;28;20053;-70
2022/01/01 08:40:10;;;;;;;22.10;16.23;;;;;;;4.60;73.85;102398.06;5028024;28;20049;-70
2022/01/01 08:42:36;;;;;;;27.17;16.23;;;;;;;4.64;73.60;102397.22;5027924;28;20103;-69
2022/01/01 08:45:03;;;;;;;31.80;15.80;;;;;;;4.67;73.59;102398.06;5028114;28;20638;-70
2022/01/01 08:47:30;;;;;;;29.63;16.25;;;;;;;4.54;73.52;102393.78;5028357;28;20500;-67
2022/01/01 08:49:57;;;;;;;22.13;15.23;;;;;;;4.57;73.69;102384.25;5027272;28;20052;-69
2022/01/01 08:52:24;;;;;;;22.60;15.55;;;;;;;4.63;73.31;102385.94;5027715;28;20045;-68
2022/01/01 08:54:57;;;;;;;22.73;15.70;;;;;;;4.69;73.22;102383.31;5027935;28;20053;-70
2022/01/01 08:57:24;;;;;;;23.38;14.68;;;;;;;4.75;72.86;102385.03;5028098;28;20049;-70
2022/01/01 08:59:51;;;;;;;20.00;15.05;;;;;;;4.76;72.91;102391.06;5027717;28;20041;-70
2022/01/01 09:02:18;;;;;;;23.25;14.77;;;;;;;4.76;72.98;102376.31;5027813;28;20049;-67
2022/01/01 09:04:45;;;;;;;27.42;14.32;;;;;;;4.72;72.59;102391.09;5027787;28;20133;-67
2022/01/01 09:07:12;;;;;;;18.33;13.20;;;;;;;4.61;72.98;102395.50;5027268;28;20057;-69
2022/01/01 09:09:40;;;;;;;22.45;15.45;;;;;;;4.66;73.16;102392.84;5030309;28;20510;-70
2022/01/01 09:12:07;;;;;;;25.30;15.60;;;;;;;4.65;72.92;102397.19;5030724;28;20449;-67
2022/01/01 09:14:34;;;;;;;22.20;15.75;;;;;;;4.72;72.84;102398.91;5030518;28;20100;-68
2022/01/01 09:17:03;;;;;;;22.58;15.05;;;;;;;4.81;72.65;102397.09;5030861;28;20099;-68
2022/01/01 09:19:29;;;;;;;27.17;15.48;;;;;;;4.86;72.44;102403.16;5031283;28;20638;-67
2022/01/01 09:21:56;;;;;;;21.92;15.73;;;;;;;4.92;72.44;102402.25;5031037;28;20037;-70
2022/01/01 09:24:23;;;;;;;23.05;15.25;;;;;;;4.98;72.20;102402.22;5029856;28;20048;-70
2022/01/01 09:26:50;;;;;;;27.23;17.08;;;;;;;5.05;72.02;102403.91;5030721;28;20049;-67
2022/01/01 09:29:21;;;;;;;29.08;17.00;;;;;;;5.05;72.56;102415.19;5030867;28;20052;-69
2022/01/01 09:31:47;;;;;;;22.83;16.40;;;;;;;5.06;72.19;102416.88;5030773;28;20400;-71
2022/01/01 09:34:14;;;;;;;22.92;15.85;;;;;;;5.11;72.29;102416.03;5030800;28;20506;-70
2022/01/01 09:36:41;;;;;;;25.73;15.73;;;;;;;5.12;72.27;102415.16;5029872;28;20099;-70
2022/01/01 09:39:08;;;;;;;24.13;16.55;;;;;;;5.07;72.36;102418.63;5030298;28;20053;-69
2022/01/01 09:41:40;;;;;;;24.10;15.93;;;;;;;5.07;72.49;102415.16;5029644;28;20561;-70
2022/01/01 09:44:12;;;;;;;26.02;17.70;;;;;;;5.14;72.44;102418.59;5030041;28;20045;-69
2022/01/01 09:46:41;;;;;;;30.75;18.83;;;;;;;5.17;72.08;102403.81;5030353;28;20046;-69
2022/01/01 09:49:07;;;;;;;25.42;18.02;;;;;;;5.20;72.44;102415.94;5029912;28;20049;-67
2022/01/01 09:51:35;;;;;;;37.97;17.40;;;;;;;5.16;72.26;102412.50;5030514;28;20231;-66
2022/01/01 09:54:02;;;;;;;28.85;17.50;;;;;;;5.10;72.55;102428.16;5030269;28;20103;-67
2022/01/01 09:56:29;;;;;;;27.60;16.85;;;;;;;5.15;72.29;102428.13;5030492;28;20087;-70
2022/01/01 09:58:55;;;;;;;26.70;17.35;;;;;;;5.14;72.39;102422.06;5028490;28;20096;-68
2022/01/01 10:01:22;;;;;;;29.75;17.17;;;;;;;5.13;72.81;102414.25;5029821;28;20046;-68
2022/01/01 10:03:51;;;;;;;26.63;17.08;;;;;;;5.12;72.88;102421.22;5029945;28;20049;-66
2022/01/01 10:06:22;;;;;;;34.28;19.40;;;;;;;5.11;73.02;102414.28;5030291;28;20053;-67
2022/01/01 10:09:00;;;;;;;32.40;20.77;;;;;;;5.07;73.25;102409.97;5029668;28;20068;-65
2022/01/01 10:11:27;;;;;;;26.70;18.50;;;;;;;5.17;72.99;102409.03;5030097;28;20115;-72
2022/01/01 10:13:54;;;;;;;36.25;20.77;;;;;;;5.11;72.98;102414.28;5029079;28;20053;-66
2022/01/01 10:16:21;;;;;;;29.45;19.55;;;;;;;5.15;73.24;102428.13;5027378;28;20073;-65
2022/01/01 10:18:50;;;;;;;27.83;18.35;;;;;;;5.25;73.39;102421.13;5027405;28;20057;-65
2022/01/01 10:21:28;;;;;;;29.48;20.02;;;;;;;5.25;73.31;102410.72;5016435;28;20046;-65
2022/01/01 10:24:06;;;;;;;35.83;21.15;;;;;;;5.34;72.98;102418.44;5015975;28;20041;-67
2022/01/01 10:29:23;;;;;;;31.35;19.30;;;;;;;5.43;72.83;102409.69;5029460;28;20045;-65
2022/01/01 10:32:02;;;;;;;29.65;19.48;;;;;;;5.66;72.71;102405.16;5029338;28;20519;-69
2022/01/01 10:34:36;;;;;;;28.92;19.95;;;;;;;5.66;72.68;102405.16;5023886;28;20080;-64
2022/01/01 10:37:27;;;;;;;33.17;21.38;;;;;;;5.64;72.85;102413.88;5028129;28;20064;-65
2022/01/01 10:39:55;;;;;;;30.02;20.33;;;;;;;5.52;73.08;102401.81;5029242;28;20486;-65
2022/01/01 10:42:22;;;;;;;35.35;20.33;;;;;;;5.44;73.74;102398.41;5029195;28;20049;-65
2022/01/01 10:44:53;;;;;;;29.17;20.98;;;;;;;5.50;73.36;102406.19;5026274;28;20045;-65
2022/01/01 10:47:32;;;;;;;32.60;21.17;;;;;;;5.53;73.55;102400.94;5028948;28;20049;-71
2022/01/01 10:52:45;;;;;;;32.08;21.67;;;;;;;5.51;73.89;102398.34;5025609;28;20045;-68
2022/01/01 10:55:15;;;;;;;38.33;22.48;;;;;;;5.44;74.14;102401.03;5023753;28;20045;-72
2022/01/01 10:57:52;;;;;;;36.55;23.15;;;;;;;5.53;74.13;102395.72;5026498;28;20045;-72
2022/01/01 11:00:21;;;;;;;37.35;22.92;;;;;;;5.58;73.88;102396.56;5029038;28;20426;-72
2022/01/01 11:02:57;;;;;;;49.70;28.17;;;;;;;5.49;74.24;102394.03;5029628;28;20124;-72
2022/01/01 11:05:32;;;;;;;40.20;26.25;;;;;;;5.55;74.65;102394.84;5029255;28;20049;-73
2022/01/01 11:08:00;;;;;;;48.67;29.13;;;;;;;5.53;74.39;102398.34;5029503;28;20056;-73
2022/01/01 11:10:28;;;;;;;114.63;64.45;;;;;;;5.69;73.98;102391.25;5028209;28;20041;-72
2022/01/01 11:12:57;;;;;;;84.45;54.47;;;;;;;5.77;74.18;102385.97;5030452;28;20048;-72
2022/01/01 11:15:24;;;;;;;48.75;34.35;;;;;;;5.83;73.74;102394.56;5020109;28;20108;-71
2022/01/01 11:17:56;;;;;;;64.20;50.70;;;;;;;5.82;73.52;102390.25;5017707;28;20133;-73
2022/01/01 11:20:24;;;;;;;60.38;41.40;;;;;;;5.72;73.83;102388.59;5023132;28;20042;-66
2022/01/01 11:22:51;;;;;;;53.10;35.28;;;;;;;5.76;73.88;102387.69;5018761;28;20050;-68
2022/01/01 11:25:18;;;;;;;45.30;33.10;;;;;;;5.78;74.06;102387.69;5025072;28;20053;-68
2022/01/01 11:27:46;;;;;;;50.67;32.70;;;;;;;5.86;73.91;102396.28;5026864;28;20151;-66